Flight Track Log - Related Links

Times and Time Zones

All times are in EDT time to prevent confusion due to time zone crossing. See the EJA831 flight status page for this flight to view local times or setup timezone preferences in your user account.

Time Position Orientation Groundspeed Altitude Reporting Facility
EDT Latitude Longitude Course Direction KTS MPH feet Rate Location/Type
Fri 07:37:41 PM 43.4225 -124.3019 177° South 209 241 3,400  Level Seattle Center
Fri 07:38:42 PM 43.4583 -124.2503 46° Northeast 215 247 7,900 4,230 Climbing Seattle Center
Fri 07:39:43 PM 43.4211 -124.1714 123° Southeast 249 287 12,000 3,000 Climbing Seattle Center
Fri 07:40:44 PM 43.3889 -124.0817 116° Southeast 254 292 14,000 2,852 Climbing Seattle Center
Fri 07:41:00 PM 42.8398 -123.8369 176° South  Level Estimated
Fri 07:41:45 PM 43.3542 -123.9544 111° Southeast 310 357 17,800  Level Seattle Center
Fri 07:42:00 PM 42.7434 -123.7693 175° South  Level Estimated
Fri 07:42:46 PM 43.3197 -123.8392 112° Southeast 322 371 19,700  Level Seattle Center
Fri 07:43:00 PM 42.6470 -123.7019 177° South  Level Estimated
Fri 07:43:47 PM 43.2297 -123.7850 156° South 363 418 21,600  Level Seattle Center
Fri 07:44:48 PM 43.1256 -123.7636 171° South 375 432 23,500 1,869 Climbing Seattle Center
Fri 07:45:49 PM 43.0181 -123.7419 172° South 386 444 25,400 2,066 Climbing Seattle Center
Fri 07:46:50 PM 42.8889 -123.7164 172° South 390 449 27,700 1,967 Climbing Seattle Center
Fri 07:47:51 PM 42.7800 -123.6969 173° South 395 455 29,400 1,426 Climbing Seattle Center
Fri 07:48:52 PM 42.6683 -123.6753 172° South 405 466 30,600 1,082 Climbing Seattle Center
Fri 07:49:53 PM 42.5511 -123.6536 172° South 420 483 31,600 1,033 Climbing Seattle Center
Fri 07:50:54 PM 42.4289 -123.6297 172° South 440 506 32,700 984 Climbing Seattle Center
Fri 07:51:55 PM 42.3050 -123.6078 173° South 450 518 33,600 934 Climbing Seattle Center
Fri 07:52:56 PM 42.1786 -123.5847 172° South 457 526 34,600 689 Climbing Seattle Center
Fri 07:53:57 PM 42.0511 -123.5608 172° South 463 533 35,000 197 Climbing Seattle Center
Fri 07:54:58 PM 41.9178 -123.5353 172° South 480 552 35,000  Level Seattle Center
Fri 07:55:59 PM 41.7839 -123.5108 172° South 488 562 35,000  Level Seattle Center
Fri 07:57:01 PM 41.6242 -123.4800 172° South 486 559 35,000  Level Seattle Center
Fri 07:58:02 PM 41.4936 -123.4581 173° South 479 551 35,000  Level Seattle Center
Fri 07:59:03 PM 41.3758 -123.4386 173° South 484 557 35,000  Level Seattle Center
Fri 08:00:04 PM 41.2511 -123.3694 157° South 483 556 35,000  Level Seattle Center
Fri 08:01:05 PM 41.1064 -123.2739 154° Southeast 482 555 35,000  Level Seattle Center
Fri 08:02:06 PM 40.9858 -123.1961 154° Southeast 482 555 35,000  Level Seattle Center
Fri 08:03:07 PM 40.8658 -123.1153 153° Southeast 483 556 35,000  Level Seattle Center
Fri 08:04:07 PM 40.7497 -123.0419 154° Southeast 481 554 35,000  Level Oakland Center
Fri 08:05:08 PM 40.6306 -122.9644 154° Southeast 480 552 35,000  Level Oakland Center
Fri 08:06:10 PM 40.5111 -122.8881 154° Southeast 480 552 35,000  Level Oakland Center
Fri 08:07:11 PM 40.3925 -122.8117 154° Southeast 478 550 35,000  Level Oakland Center
Fri 08:08:12 PM 40.2753 -122.7369 154° Southeast 474 545 35,000  Level Oakland Center
Fri 08:09:14 PM 40.1386 -122.6486 154° Southeast 465 535 35,000  Level Oakland Center
Fri 08:10:15 PM 40.0244 -122.5786 155° Southeast 461 531 35,000  Level Oakland Center
Fri 08:11:17 PM 39.9117 -122.5061 154° Southeast 460 529 35,000  Level Oakland Center
Fri 08:12:18 PM 39.7983 -122.4325 153° Southeast 460 529 35,000  Level Oakland Center
Fri 08:13:20 PM 39.6836 -122.3611 154° Southeast 460 529 35,000  Level Oakland Center
Fri 08:14:21 PM 39.5689 -122.2894 154° Southeast 460 529 35,000  Level Oakland Center
Fri 08:15:23 PM 39.4461 -122.2119 154° Southeast 461 531 35,000  Level Oakland Center
Fri 08:16:24 PM 39.3306 -122.1411 155° Southeast 460 529 35,000  Level Oakland Center
Fri 08:17:26 PM 39.2147 -122.0689 154° Southeast 461 531 35,000  Level Oakland Center
Fri 08:18:27 PM 39.0767 -121.9844 155° Southeast 460 529 35,000  Level Oakland Center
Fri 08:19:29 PM 38.9622 -121.9136 154° Southeast 457 526 35,000  Level Oakland Center
Fri 08:20:30 PM 38.8475 -121.8428 154° Southeast 458 527 35,000  Level Oakland Center
Fri 08:21:31 PM 38.7311 -121.7725 155° Southeast 463 533 35,000  Level Oakland Center
Fri 08:22:33 PM 38.6169 -121.7036 155° Southeast 458 527 35,000  Level Oakland Center
Fri 08:23:34 PM 38.5022 -121.6339 155° Southeast 462 532 35,000  Level Oakland Center
Fri 08:24:36 PM 38.3892 -121.5644 154° Southeast 465 535 35,000  Level Oakland Center
Fri 08:25:37 PM 38.2486 -121.4817 155° Southeast 465 535 35,000  Level Oakland Center
Fri 08:26:39 PM 38.1333 -121.4125 155° Southeast 462 532 35,000  Level Oakland Center
Fri 08:27:40 PM 38.0178 -121.3428 155° Southeast 462 532 35,000  Level Oakland Center
Fri 08:28:42 PM 37.9019 -121.2744 155° Southeast 461 531 35,000  Level Oakland Center
Fri 08:29:43 PM 37.7864 -121.2058 155° Southeast 461 531 35,000  Level Oakland Center
Fri 08:30:44 PM 37.6711 -121.1383 155° Southeast 458 527 35,000  Level Oakland Center
Fri 08:31:46 PM 37.5564 -121.0706 155° Southeast 454 522 35,000  Level Oakland Center
Fri 08:32:47 PM 37.4194 -120.9853 154° Southeast 458 527 35,000  Level Oakland Center
Fri 08:33:49 PM 37.3050 -120.9106 153° Southeast 462 532 35,000  Level Oakland Center
Fri 08:34:50 PM 37.1906 -120.8378 153° Southeast 461 531 35,000 -390 Level Oakland Center
Fri 08:35:52 PM 37.0756 -120.7658 153° Southeast 463 533 34,200 -878 Descending Oakland Center
Fri 08:36:53 PM 36.9614 -120.6947 154° Southeast 459 528 33,200 -585 Descending Oakland Center
Fri 08:37:55 PM 36.8458 -120.6211 153° Southeast 465 535 33,000 -98 Descending Oakland Center
Fri 08:38:56 PM 36.7267 -120.5472 154° Southeast 469 540 33,000  Level Oakland Center
Fri 08:39:58 PM 36.6106 -120.4728 153° Southeast 470 541 33,000  Level Oakland Center
Fri 08:40:59 PM 36.4953 -120.4008 153° Southeast 465 535 33,000  Level Oakland Center
Fri 08:42:01 PM 36.3803 -120.3294 153° Southeast 462 532 33,000  Level Oakland Center
Fri 08:43:02 PM 36.2433 -120.2444 153° Southeast 460 529 33,000  Level Oakland Center
Fri 08:44:04 PM 36.1297 -120.1742 153° Southeast 457 526 33,000  Level Oakland Center
Fri 08:45:05 PM 36.0147 -120.1031 153° Southeast 459 528 33,000  Level Oakland Center
Fri 08:46:07 PM 35.9008 -120.0328 153° Southeast 456 525 33,000  Level Oakland Center
Fri 08:47:08 PM 35.7858 -119.9628 154° Southeast 457 526 33,000  Level Oakland Center
Fri 08:48:10 PM 35.6719 -119.8933 154° Southeast 455 524 33,000  Level Oakland Center
Fri 08:49:12 PM 35.5581 -119.8239 154° Southeast 454 522 33,000 -50 Level Oakland Center
Fri 08:50:09 PM 35.4456 -119.7544 153° Southeast 451 519 32,900 -1,008 Descending Los Angeles Center
Fri 08:51:11 PM 35.3311 -119.6858 154° Southeast 453 521 31,000 -1,887 Descending Los Angeles Center
Fri 08:52:13 PM 35.2228 -119.6131 151° Southeast 447 514 29,000 -1,935 Descending Los Angeles Center
Fri 08:53:15 PM 35.1206 -119.5250 145° Southeast 451 519 27,000 -2,129 Descending Los Angeles Center
Fri 08:54:17 PM 34.9956 -119.4189 145° Southeast 452 520 24,600 -2,129 Descending Los Angeles Center
Fri 08:55:19 PM 34.8958 -119.3350 145° Southeast 443 510 22,600 -1,984 Descending Los Angeles Center
Fri 08:56:21 PM 34.7994 -119.2533 145° Southeast 428 493 20,500 -2,371 Descending Los Angeles Center
Fri 08:57:23 PM 34.7103 -119.1792 146° Southeast 391 450 17,700 -2,468 Descending Los Angeles Center
Fri 08:58:25 PM 34.6350 -119.1150 145° Southeast 355 409 15,400 -2,516 Descending Los Angeles Center
Fri 08:59:27 PM 34.5414 -119.0383 146° Southeast 337 388 12,500 -2,419 Descending Los Angeles Center
Fri 09:00:29 PM 34.4697 -118.9758 144° Southeast 318 366 10,400 -1,935 Descending Los Angeles Center
Fri 09:01:31 PM 34.4047 -118.9192 144° Southeast 289 333 8,500 -1,355 Descending Los Angeles Center
Fri 09:02:33 PM 34.3478 -118.8572 138° Southeast 277 319 7,600 -726 Descending Los Angeles Center
Fri 09:03:35 PM 34.3200 -118.7736 112° Southeast 266 306 7,000 -290 Descending Los Angeles Center
Fri 09:04:37 PM 34.2933 -118.6944 112° Southeast 257 296 7,000  Level Los Angeles Center
Fri 09:05:31 PM 34.2667 -118.6000 109° East 264 304 7,000  Level Southern California TRACON
Fri 09:06:31 PM 34.2333 -118.5333 121° Southeast 266 306 7,000 -700 Level Southern California TRACON
Fri 09:07:31 PM 34.2167 -118.4500 104° East 251 289 5,600 -1,388 Descending Southern California TRACON
Fri 09:08:32 PM 34.1833 -118.3667 116° Southeast 231 266 4,200 -950 Descending Southern California TRACON
Fri 09:09:31 PM 34.1333 -118.3333 151° Southeast 229 264 3,700 -700 Descending Southern California TRACON
Fri 09:10:32 PM 34.0833 -118.3667 209° Southwest 176 203 2,800 -893 Descending Southern California TRACON
Fri 09:11:32 PM 34.0500 -118.4000 220° Southwest 151 174 1,900 -1,050 Descending Southern California TRACON
Fri 09:12:32 PM 34.0333 -118.4333 239° Southwest 122 140 700 -755 Descending Southern California TRACON
Fri 09:13:55 PM 34.0075 -118.4667 227° Southwest 134 154 100 -434 Descending Los Angeles Center
Fri 09:15:00 PM 34.0000 -118.4500 90° East  Level FlightAware Approximate
Fri 09:22:00 PM 34.0158 -118.4513 90° East  Level Estimated

Login

Don't have an account? Register now (free) for customized features, flight alerts, and more!